DW2770 Cefalu IT current weather conditions

sailwx.info

Wind from 315 at 1 knots gusting 4

Air temperature 24.4° C
Dewpoint 17.4° C

Last reported at 2017-Sep-19 11:00 UTC.
Time now 2017-Sep-19 11:41 UTC

Location: N 38°02' E 014°02'.
View on Google Maps.

See reports from other nearby stations

  
Tides and Currents Weather Stations Pressure Air Temp Water Temp Dewpoint Dewpoint Depression Visibility Wind Speed Wind Dir Waves Ship Positions
date/time (UTC)wind fromknots sea level pressurealtimeterstation pressurevisibilityair tempwater tempwave heightnotes
2017-Sep-19 11:00 315 1 gusting 4 24.4
2017-Sep-19 10:40 225 6 gusting 6 24.4
2017-Sep-19 10:30 270 5 gusting 6 24.4
2017-Sep-19 10:20 248 7 gusting 8 24.4
2017-Sep-19 10:10 333 8 gusting 8 23.9
2017-Sep-19 10:00 270 1 gusting 5 24.4
2017-Sep-19 09:50 292 5 gusting 6 23.9
2017-Sep-19 09:40 253 5 gusting 8 23.9
2017-Sep-19 09:30 270 6 gusting 6 23.9
2017-Sep-19 09:20 292 5 gusting 6 23.9
2017-Sep-19 09:10 255 6 gusting 6 23.9
2017-Sep-19 09:00 292 5 gusting 6 23.9
2017-Sep-19 08:50 248 2 gusting 7 23.3
2017-Sep-19 08:40 248 7 gusting 7 23.3
2017-Sep-19 08:30 292 1 gusting 5 23.3
2017-Sep-19 08:10 246 1 gusting 5 23.3
2017-Sep-19 08:00 292 5 gusting 7 23.3
2017-Sep-19 07:50 248 5 gusting 7 23.3
2017-Sep-19 07:40 245 4 gusting 5 23.3
2017-Sep-19 07:20 248 11 gusting 13 23.3
2017-Sep-19 07:10 233 6 gusting 6 23.3
2017-Sep-19 06:50 202 5 gusting 7 23.3
2017-Sep-19 06:10 202 6 gusting 6 23.3
2017-Sep-19 06:00 225 6 gusting 6 22.8
2017-Sep-19 05:40 225 6 gusting 6 22.8
2017-Sep-19 05:30 202 6 gusting 6 22.8
2017-Sep-19 05:20 225 5 gusting 7 22.8
2017-Sep-19 04:50 180 4 gusting 6 21.7
2017-Sep-19 04:40 225 4 gusting 4 21.7
2017-Sep-19 04:22 180 2 gusting 4 21.7
2017-Sep-19 04:10 212 4 gusting 5 21.1
2017-Sep-19 04:00 164 2 gusting 2 21.1
2017-Sep-19 03:30 202 1 gusting 4 21.1
2017-Sep-19 03:20 202 3 gusting 4 21.1
2017-Sep-19 03:00 246 2 gusting 2 21.1
2017-Sep-19 02:45 229 2 gusting 2 21.1
2017-Sep-19 02:22 270 1 gusting 4 20.6
2017-Sep-19 02:10 202 2 gusting 4 21.1
2017-Sep-19 02:00 206 2 gusting 4 21.1
2017-Sep-19 01:50 180 2 gusting 4 21.1
2017-Sep-19 01:30 045 21.7
2017-Sep-19 01:20 068 2 gusting 2 21.1
2017-Sep-19 01:10 046 0 gusting 0 21.1
2017-Sep-19 01:00 037 0 gusting 0 21.1
2017-Sep-19 00:40 090 0 gusting 2 21.1
2017-Sep-19 00:30 180 21.1
2017-Sep-19 00:20 180 0 gusting 0 21.1
2017-Sep-19 00:10 068 21.1
2017-Sep-19 00:00 180 21.1
2017-Sep-18 23:50 180 3 gusting 4 21.1
2017-Sep-18 23:40 273 0 gusting 1 21.1
2017-Sep-18 23:30 090 0 gusting 1 21.1
2017-Sep-18 23:20 158 21.1
2017-Sep-18 23:00 135 21.1
2017-Sep-18 22:40 112 0 gusting 1 21.7
2017-Sep-18 22:20 202 0 gusting 4 21.1
2017-Sep-18 22:10 202 4 gusting 4 21.1
2017-Sep-18 21:50 180 1 gusting 2 20.6
2017-Sep-18 21:40 139 2 gusting 2 20.6
2017-Sep-18 21:30 138 0 gusting 2 20.6
2017-Sep-18 21:20 158 0 gusting 2 20.6
2017-Sep-18 21:10 068 20.6
2017-Sep-18 20:50 112 21.1
2017-Sep-18 20:40 045 21.1
2017-Sep-18 20:30 344 21.1
2017-Sep-18 20:20 068 21.7
2017-Sep-18 20:00 106 0 gusting 2 21.7
2017-Sep-18 19:50 068 0 gusting 1 21.7
2017-Sep-18 19:40 045 21.7
2017-Sep-18 19:30 055 21.7
2017-Sep-18 19:20 045 21.7
2017-Sep-18 18:50 090 0 gusting 0 21.7
2017-Sep-18 18:40 338 21.7
2017-Sep-18 18:30 094 0 gusting 0 21.7
2017-Sep-18 18:20 022 21.7
2017-Sep-18 18:10 045 21.7
2017-Sep-18 17:50 068 21.7
2017-Sep-18 17:30 068 0 gusting 1 22.2
2017-Sep-18 17:20 045 2 gusting 2 22.2
2017-Sep-18 17:10 068 2 gusting 2 22.2
2017-Sep-18 16:40 045 5 gusting 5 22.8
2017-Sep-18 16:30 077 1 gusting 4 22.8
2017-Sep-18 16:10 068 5 gusting 6 22.8
2017-Sep-18 15:50 090 3 gusting 4 23.3
2017-Sep-18 15:40 090 2 gusting 7 23.3
2017-Sep-18 15:30 090 2 gusting 6 23.3
2017-Sep-18 15:20 068 5 gusting 11 23.3
2017-Sep-18 15:00 068 7 gusting 7 23.3
2017-Sep-18 14:50 068 7 gusting 7 23.3
2017-Sep-18 14:40 068 3 gusting 8 23.3
2017-Sep-18 14:10 068 4 gusting 6 23.3
2017-Sep-18 14:00 080 5 gusting 6 23.3
2017-Sep-18 13:50 068 2 gusting 12 23.9
2017-Sep-18 13:40 068 10 gusting 12 23.9
2017-Sep-18 13:30 112 1 gusting 7 23.9
2017-Sep-18 13:20 068 5 gusting 7 23.9
2017-Sep-18 13:00 046 8 gusting 8 23.9
2017-Sep-18 12:40 112 5 gusting 6 23.9
2017-Sep-18 12:30 053 6 gusting 6 23.9
2017-Sep-18 12:20 068 4 gusting 7 23.9
2017-Sep-18 12:10 090 3 gusting 6 23.9
2017-Sep-18 12:00 068 6 gusting 10 23.3
2017-Sep-18 11:50 068 8 gusting 10 23.9
2017-Sep-18 11:40 112 5 gusting 8 23.9
2017-Sep-18 11:30 068 5 gusting 8 23.9
2017-Sep-18 11:20 068 2 gusting 7 23.9
2017-Sep-18 11:00 082 6 gusting 10 23.9
2017-Sep-18 10:50 068 7 gusting 10 23.3
2017-Sep-18 10:40 068 4 gusting 6 23.9
2017-Sep-18 10:30 045 5 gusting 5 23.9
2017-Sep-18 10:20 112 4 gusting 5 23.9
2017-Sep-18 10:10 068 5 gusting 10 23.9
2017-Sep-18 09:50 047 2 gusting 7 23.9
2017-Sep-18 09:30 068 2 gusting 7 23.3
2017-Sep-18 09:20 068 6 gusting 6 23.9
2017-Sep-18 09:10 068 2 gusting 5 23.3
2017-Sep-18 09:00 111 1 gusting 6 23.3
2017-Sep-18 08:50 068 5 gusting 6 22.8
2017-Sep-18 08:40 045 4 gusting 6 22.8
2017-Sep-18 08:30 062 4 gusting 4 22.8
2017-Sep-18 08:20 068 2 gusting 4 23.3
2017-Sep-18 08:10 090 3 gusting 8 23.3
2017-Sep-18 08:00 063 1 gusting 5 23.3
2017-Sep-18 07:50 109 2 gusting 5 23.3
2017-Sep-18 07:40 068 1 gusting 2 22.8
2017-Sep-18 07:20 086 1 gusting 2 22.8
2017-Sep-18 07:10 068 1 gusting 6 22.8
2017-Sep-18 06:40 090 2 gusting 2 22.8
2017-Sep-18 06:30 109 1 gusting 1 22.2
2017-Sep-18 06:10 068 2 gusting 4 22.2
2017-Sep-18 06:00 045 4 gusting 4 21.1
2017-Sep-18 05:50 112 2 gusting 4 21.1
2017-Sep-18 05:40 068 0 gusting 2 21.1
2017-Sep-18 05:30 130 1 gusting 2 21.1
2017-Sep-18 05:20 077 0 gusting 4 21.1
2017-Sep-18 05:10 069 4 gusting 4 20.6
2017-Sep-18 05:00 069 4 gusting 4 20.6
2017-Sep-18 04:40 068 4 gusting 4 20.6
2017-Sep-18 04:30 047 0 gusting 1 21.1
2017-Sep-18 04:00 069 21.1
2017-Sep-18 03:50 069 21.1
2017-Sep-18 03:40 069 21.1
2017-Sep-18 03:10 069 21.1
2017-Sep-18 03:00 069 21.1
2017-Sep-18 02:50 069 21.1
2017-Sep-18 02:40 069 21.1
2017-Sep-18 02:30 069 21.1
2017-Sep-18 02:20 069 21.1
2017-Sep-18 01:50 069 21.1
2017-Sep-18 01:30 069 21.1
2017-Sep-18 01:10 069 21.1
2017-Sep-18 00:50 069 21.1
2017-Sep-18 00:40 068 21.1
2017-Sep-18 00:30 068 21.1
2017-Sep-18 00:10 090 1 gusting 1 21.1
2017-Sep-17 23:50 045 2 gusting 2 21.1
2017-Sep-17 23:40 068 0 gusting 0 21.1
2017-Sep-17 23:20 068 21.7
2017-Sep-17 22:50 045 21.1
2017-Sep-17 22:40 158 0 gusting 0 20.6
2017-Sep-17 22:30 068 0 gusting 0 20.6
2017-Sep-17 22:20 057 0 gusting 0 20.6
2017-Sep-17 22:00 090 2 gusting 2 20.6
2017-Sep-17 21:50 068 2 gusting 2 20.6
2017-Sep-17 21:40 180 1 gusting 1 21.1
2017-Sep-17 21:30 068 0 gusting 2 21.1
2017-Sep-17 21:10 315 0 gusting 1 21.1
2017-Sep-17 21:00 068 1 gusting 2 21.7
2017-Sep-17 20:50 068 0 gusting 4 21.7
2017-Sep-17 20:40 21.7
2017-Sep-17 20:30 21.7
2017-Sep-17 20:10 068 21.7
2017-Sep-17 20:00 068 0 gusting 0 21.7
2017-Sep-17 19:50 068 21.7
2017-Sep-17 19:40 292 21.7
2017-Sep-17 19:20 023 21.7
2017-Sep-17 18:50 090 1 gusting 6 22.8
2017-Sep-17 18:40 112 2 gusting 4 22.8
2017-Sep-17 18:30 022 4 gusting 4 22.8
2017-Sep-17 18:20 068 2 gusting 2 22.8
2017-Sep-17 18:00 045 0 gusting 4 22.8
2017-Sep-17 17:50 068 1 gusting 5 22.8
2017-Sep-17 17:40 068 4 gusting 6 22.8
2017-Sep-17 17:30 045 6 gusting 7 22.8
2017-Sep-17 17:20 037 7 gusting 7 22.8
2017-Sep-17 17:00 045 5 gusting 6 22.8
2017-Sep-17 16:50 083 1 gusting 6 22.8
2017-Sep-17 16:40 112 22.8
2017-Sep-17 16:30 068 4 gusting 5 22.8
2017-Sep-17 16:20 057 4 gusting 7 22.8
2017-Sep-17 16:00 069 7 gusting 7 23.3
2017-Sep-17 15:50 068 7 gusting 7 23.3
2017-Sep-17 15:40 068 7 gusting 7 23.3
2017-Sep-17 15:30 068 6 gusting 11 23.3
2017-Sep-17 15:20 022 10 gusting 10 23.3
2017-Sep-17 15:00 068 7 gusting 12 23.3
2017-Sep-17 14:50 116 7 gusting 8 23.3
2017-Sep-17 14:40 068 2 gusting 2 23.9
2017-Sep-17 14:20 237 2 gusting 2 25.0
2017-Sep-17 14:10 045 2 gusting 2 25.0
2017-Sep-17 13:50 074 4 gusting 5 25.0
2017-Sep-17 13:40 045 1 gusting 4 25.0
2017-Sep-17 13:30 112 0 gusting 2 25.0
2017-Sep-17 13:20 342 0 gusting 1 25.6
2017-Sep-17 13:10 338 25.6
2017-Sep-17 12:50 315 25.6
2017-Sep-17 12:40 135 25.6
2017-Sep-17 12:20 316 4 gusting 4 25.0
2017-Sep-17 12:10 316 4 gusting 4 25.0
2017-Sep-17 12:00 315 4 gusting 4 25.0
2017-Sep-17 11:50 315 3 gusting 4 25.0
2017-Sep-17 11:30 315 1 gusting 2 25.0
2017-Sep-17 11:20 249 2 gusting 2 25.6
2017-Sep-17 11:10 249 2 gusting 2 25.6
2017-Sep-17 11:00 248 2 gusting 2 25.6